sensor_id;sensor_type;location;lat;lon;timestamp;P1;durP1;ratioP1;P2;durP2;ratioP2
51489;SDS011;57752;53.574;9.736;2023-06-22T00:00:25;12.30;;;4.90;;
51489;SDS011;57752;53.574;9.736;2023-06-22T00:05:26;10.35;;;4.53;;
51489;SDS011;57752;53.574;9.736;2023-06-22T00:10:26;12.02;;;5.22;;
51489;SDS011;57752;53.574;9.736;2023-06-22T00:15:26;12.10;;;4.82;;
51489;SDS011;57752;53.574;9.736;2023-06-22T00:20:27;12.95;;;6.03;;
51489;SDS011;57752;53.574;9.736;2023-06-22T00:25:30;12.90;;;5.82;;
51489;SDS011;57752;53.574;9.736;2023-06-22T00:30:31;11.30;;;5.10;;
51489;SDS011;57752;53.574;9.736;2023-06-22T00:35:32;15.32;;;5.40;;
51489;SDS011;57752;53.574;9.736;2023-06-22T00:40:32;14.52;;;5.70;;
51489;SDS011;57752;53.574;9.736;2023-06-22T00:45:33;11.05;;;5.20;;
51489;SDS011;57752;53.574;9.736;2023-06-22T00:50:33;11.55;;;4.95;;
51489;SDS011;57752;53.574;9.736;2023-06-22T00:55:35;14.75;;;6.28;;
51489;SDS011;57752;53.574;9.736;2023-06-22T01:00:40;12.90;;;6.25;;
51489;SDS011;57752;53.574;9.736;2023-06-22T01:05:41;13.30;;;5.80;;
51489;SDS011;57752;53.574;9.736;2023-06-22T01:16:00;13.63;;;6.85;;
51489;SDS011;57752;53.574;9.736;2023-06-22T01:21:04;12.85;;;5.63;;
51489;SDS011;57752;53.574;9.736;2023-06-22T01:26:13;14.73;;;5.50;;
51489;SDS011;57752;53.574;9.736;2023-06-22T01:31:23;12.00;;;5.57;;
51489;SDS011;57752;53.574;9.736;2023-06-22T01:36:25;14.15;;;6.70;;
51489;SDS011;57752;53.574;9.736;2023-06-22T01:41:26;11.90;;;5.50;;
51489;SDS011;57752;53.574;9.736;2023-06-22T01:46:27;13.73;;;6.10;;
51489;SDS011;57752;53.574;9.736;2023-06-22T01:51:28;12.13;;;5.75;;
51489;SDS011;57752;53.574;9.736;2023-06-22T01:56:29;13.43;;;6.15;;
51489;SDS011;57752;53.574;9.736;2023-06-22T02:01:31;13.33;;;7.00;;
51489;SDS011;57752;53.574;9.736;2023-06-22T02:06:48;13.43;;;6.03;;
51489;SDS011;57752;53.574;9.736;2023-06-22T02:11:51;11.82;;;5.45;;
51489;SDS011;57752;53.574;9.736;2023-06-22T02:16:54;10.95;;;4.93;;
51489;SDS011;57752;53.574;9.736;2023-06-22T02:21:55;15.20;;;7.28;;
51489;SDS011;57752;53.574;9.736;2023-06-22T02:26:55;15.35;;;7.78;;
51489;SDS011;57752;53.574;9.736;2023-06-22T02:31:55;11.98;;;6.00;;
51489;SDS011;57752;53.574;9.736;2023-06-22T02:36:56;13.82;;;6.57;;
51489;SDS011;57752;53.574;9.736;2023-06-22T02:41:56;14.60;;;7.03;;
51489;SDS011;57752;53.574;9.736;2023-06-22T02:46:56;17.37;;;7.03;;
51489;SDS011;57752;53.574;9.736;2023-06-22T02:51:57;15.63;;;7.07;;
51489;SDS011;57752;53.574;9.736;2023-06-22T02:56:57;14.40;;;6.13;;
51489;SDS011;57752;53.574;9.736;2023-06-22T03:01:58;17.52;;;8.10;;
51489;SDS011;57752;53.574;9.736;2023-06-22T03:06:58;12.25;;;5.80;;
51489;SDS011;57752;53.574;9.736;2023-06-22T03:12:01;13.60;;;5.85;;
51489;SDS011;57752;53.574;9.736;2023-06-22T03:17:02;14.38;;;6.45;;
51489;SDS011;57752;53.574;9.736;2023-06-22T03:22:03;14.85;;;7.22;;
51489;SDS011;57752;53.574;9.736;2023-06-22T03:27:04;17.23;;;8.98;;
51489;SDS011;57752;53.574;9.736;2023-06-22T03:32:05;13.25;;;6.03;;
51489;SDS011;57752;53.574;9.736;2023-06-22T03:37:06;18.70;;;8.30;;
51489;SDS011;57752;53.574;9.736;2023-06-22T03:42:07;19.42;;;10.45;;
51489;SDS011;57752;53.574;9.736;2023-06-22T03:47:07;18.73;;;10.55;;
51489;SDS011;57752;53.574;9.736;2023-06-22T03:52:07;14.33;;;7.00;;
51489;SDS011;57752;53.574;9.736;2023-06-22T03:57:08;16.63;;;7.97;;
51489;SDS011;57752;53.574;9.736;2023-06-22T04:02:08;15.25;;;7.97;;
51489;SDS011;57752;53.574;9.736;2023-06-22T04:07:09;17.10;;;9.23;;
51489;SDS011;57752;53.574;9.736;2023-06-22T04:12:09;15.37;;;7.50;;
51489;SDS011;57752;53.574;9.736;2023-06-22T04:17:10;21.40;;;10.43;;
51489;SDS011;57752;53.574;9.736;2023-06-22T04:22:10;19.40;;;10.13;;
51489;SDS011;57752;53.574;9.736;2023-06-22T04:27:11;18.40;;;9.63;;
51489;SDS011;57752;53.574;9.736;2023-06-22T04:32:11;17.35;;;9.55;;
51489;SDS011;57752;53.574;9.736;2023-06-22T04:37:12;20.05;;;9.45;;
51489;SDS011;57752;53.574;9.736;2023-06-22T04:47:15;17.77;;;9.00;;
51489;SDS011;57752;53.574;9.736;2023-06-22T04:52:15;22.07;;;10.80;;
51489;SDS011;57752;53.574;9.736;2023-06-22T04:57:17;19.30;;;10.23;;
51489;SDS011;57752;53.574;9.736;2023-06-22T05:02:18;17.83;;;9.55;;
51489;SDS011;57752;53.574;9.736;2023-06-22T05:07:18;16.85;;;8.82;;
51489;SDS011;57752;53.574;9.736;2023-06-22T05:12:18;17.20;;;9.00;;
51489;SDS011;57752;53.574;9.736;2023-06-22T05:17:18;16.70;;;7.95;;
51489;SDS011;57752;53.574;9.736;2023-06-22T05:22:19;17.65;;;8.57;;
51489;SDS011;57752;53.574;9.736;2023-06-22T05:27:19;17.48;;;8.80;;
51489;SDS011;57752;53.574;9.736;2023-06-22T05:32:20;17.85;;;8.23;;
51489;SDS011;57752;53.574;9.736;2023-06-22T05:37:20;17.33;;;8.63;;
51489;SDS011;57752;53.574;9.736;2023-06-22T05:42:21;15.02;;;7.90;;
51489;SDS011;57752;53.574;9.736;2023-06-22T05:47:21;14.07;;;6.70;;
51489;SDS011;57752;53.574;9.736;2023-06-22T05:52:22;13.55;;;6.20;;
51489;SDS011;57752;53.574;9.736;2023-06-22T05:57:23;13.17;;;6.20;;
51489;SDS011;57752;53.574;9.736;2023-06-22T06:02:23;14.07;;;6.30;;
51489;SDS011;57752;53.574;9.736;2023-06-22T06:07:23;14.52;;;6.32;;
51489;SDS011;57752;53.574;9.736;2023-06-22T06:12:24;14.30;;;5.60;;
51489;SDS011;57752;53.574;9.736;2023-06-22T06:17:24;14.23;;;6.05;;
51489;SDS011;57752;53.574;9.736;2023-06-22T06:22:24;16.10;;;6.82;;
51489;SDS011;57752;53.574;9.736;2023-06-22T06:27:25;14.83;;;5.77;;
51489;SDS011;57752;53.574;9.736;2023-06-22T06:32:29;11.82;;;4.95;;
51489;SDS011;57752;53.574;9.736;2023-06-22T06:37:29;14.20;;;5.72;;
51489;SDS011;57752;53.574;9.736;2023-06-22T06:42:29;21.60;;;6.53;;
51489;SDS011;57752;53.574;9.736;2023-06-22T06:47:30;15.27;;;5.63;;
51489;SDS011;57752;53.574;9.736;2023-06-22T06:52:30;16.42;;;6.15;;
51489;SDS011;57752;53.574;9.736;2023-06-22T06:57:30;12.32;;;5.45;;
51489;SDS011;57752;53.574;9.736;2023-06-22T07:02:30;49.40;;;9.18;;
51489;SDS011;57752;53.574;9.736;2023-06-22T07:07:31;11.55;;;4.70;;
51489;SDS011;57752;53.574;9.736;2023-06-22T07:12:31;13.35;;;5.47;;
51489;SDS011;57752;53.574;9.736;2023-06-22T07:17:32;50.30;;;8.57;;
51489;SDS011;57752;53.574;9.736;2023-06-22T07:22:32;11.43;;;4.78;;
51489;SDS011;57752;53.574;9.736;2023-06-22T07:27:32;13.88;;;4.55;;
51489;SDS011;57752;53.574;9.736;2023-06-22T07:32:36;27.30;;;6.22;;
51489;SDS011;57752;53.574;9.736;2023-06-22T07:37:36;15.33;;;4.47;;
51489;SDS011;57752;53.574;9.736;2023-06-22T07:42:37;16.55;;;4.57;;
51489;SDS011;57752;53.574;9.736;2023-06-22T07:47:37;11.53;;;4.13;;
51489;SDS011;57752;53.574;9.736;2023-06-22T07:52:37;15.13;;;4.00;;
51489;SDS011;57752;53.574;9.736;2023-06-22T07:57:37;12.63;;;4.13;;
51489;SDS011;57752;53.574;9.736;2023-06-22T08:02:38;13.33;;;4.10;;
51489;SDS011;57752;53.574;9.736;2023-06-22T08:07:39;16.02;;;3.88;;
51489;SDS011;57752;53.574;9.736;2023-06-22T08:12:40;13.20;;;4.13;;
51489;SDS011;57752;53.574;9.736;2023-06-22T08:17:40;20.50;;;5.07;;
51489;SDS011;57752;53.574;9.736;2023-06-22T08:22:41;18.10;;;4.38;;
51489;SDS011;57752;53.574;9.736;2023-06-22T08:27:44;15.00;;;4.37;;
51489;SDS011;57752;53.574;9.736;2023-06-22T08:32:45;32.00;;;5.43;;
51489;SDS011;57752;53.574;9.736;2023-06-22T08:37:46;13.55;;;3.90;;
51489;SDS011;57752;53.574;9.736;2023-06-22T08:42:50;15.63;;;4.20;;
51489;SDS011;57752;53.574;9.736;2023-06-22T08:47:50;11.60;;;3.80;;
51489;SDS011;57752;53.574;9.736;2023-06-22T08:52:51;11.45;;;3.90;;
51489;SDS011;57752;53.574;9.736;2023-06-22T08:57:51;11.07;;;4.00;;
51489;SDS011;57752;53.574;9.736;2023-06-22T09:02:51;77.28;;;9.68;;
51489;SDS011;57752;53.574;9.736;2023-06-22T09:07:52;13.37;;;4.03;;
51489;SDS011;57752;53.574;9.736;2023-06-22T09:12:54;10.38;;;3.70;;
51489;SDS011;57752;53.574;9.736;2023-06-22T09:17:54;10.90;;;4.00;;
51489;SDS011;57752;53.574;9.736;2023-06-22T09:22:55;10.43;;;3.87;;
51489;SDS011;57752;53.574;9.736;2023-06-22T09:27:56;11.48;;;4.03;;
51489;SDS011;57752;53.574;9.736;2023-06-22T09:32:56;11.77;;;4.50;;
51489;SDS011;57752;53.574;9.736;2023-06-22T09:37:56;10.68;;;3.88;;
51489;SDS011;57752;53.574;9.736;2023-06-22T09:42:56;11.48;;;4.10;;
51489;SDS011;57752;53.574;9.736;2023-06-22T09:47:57;11.18;;;3.92;;
51489;SDS011;57752;53.574;9.736;2023-06-22T09:52:57;10.85;;;3.83;;
51489;SDS011;57752;53.574;9.736;2023-06-22T09:57:57;10.18;;;3.72;;
51489;SDS011;57752;53.574;9.736;2023-06-22T10:02:58;10.23;;;3.67;;
51489;SDS011;57752;53.574;9.736;2023-06-22T10:07:58;9.70;;;3.63;;
51489;SDS011;57752;53.574;9.736;2023-06-22T10:13:02;11.50;;;4.23;;
51489;SDS011;57752;53.574;9.736;2023-06-22T10:18:08;10.88;;;3.97;;
51489;SDS011;57752;53.574;9.736;2023-06-22T10:23:08;11.63;;;4.20;;
51489;SDS011;57752;53.574;9.736;2023-06-22T10:28:09;12.20;;;4.20;;
51489;SDS011;57752;53.574;9.736;2023-06-22T10:33:09;10.20;;;4.37;;
51489;SDS011;57752;53.574;9.736;2023-06-22T10:38:10;11.47;;;4.27;;
51489;SDS011;57752;53.574;9.736;2023-06-22T10:43:10;11.02;;;4.20;;
51489;SDS011;57752;53.574;9.736;2023-06-22T10:48:10;14.68;;;5.07;;
51489;SDS011;57752;53.574;9.736;2023-06-22T10:53:10;13.32;;;4.20;;
51489;SDS011;57752;53.574;9.736;2023-06-22T10:58:11;12.13;;;5.17;;
51489;SDS011;57752;53.574;9.736;2023-06-22T11:03:11;10.88;;;3.95;;
51489;SDS011;57752;53.574;9.736;2023-06-22T11:08:13;12.90;;;6.32;;
51489;SDS011;57752;53.574;9.736;2023-06-22T11:13:13;11.98;;;4.18;;
51489;SDS011;57752;53.574;9.736;2023-06-22T11:18:14;14.10;;;4.60;;
51489;SDS011;57752;53.574;9.736;2023-06-22T11:23:14;22.55;;;5.43;;
51489;SDS011;57752;53.574;9.736;2023-06-22T11:28:14;12.73;;;5.03;;
51489;SDS011;57752;53.574;9.736;2023-06-22T11:33:15;25.23;;;5.50;;
51489;SDS011;57752;53.574;9.736;2023-06-22T11:38:15;13.23;;;4.28;;
51489;SDS011;57752;53.574;9.736;2023-06-22T11:43:15;12.07;;;5.50;;
51489;SDS011;57752;53.574;9.736;2023-06-22T11:48:16;12.20;;;5.23;;
51489;SDS011;57752;53.574;9.736;2023-06-22T11:53:16;34.23;;;7.37;;
51489;SDS011;57752;53.574;9.736;2023-06-22T11:58:17;13.07;;;5.35;;
51489;SDS011;57752;53.574;9.736;2023-06-22T12:03:18;13.13;;;5.18;;
51489;SDS011;57752;53.574;9.736;2023-06-22T12:08:18;15.00;;;5.30;;
51489;SDS011;57752;53.574;9.736;2023-06-22T12:13:19;15.83;;;5.57;;
51489;SDS011;57752;53.574;9.736;2023-06-22T12:18:19;13.20;;;6.23;;
51489;SDS011;57752;53.574;9.736;2023-06-22T12:23:21;10.90;;;4.45;;
51489;SDS011;57752;53.574;9.736;2023-06-22T12:28:21;20.25;;;5.70;;
51489;SDS011;57752;53.574;9.736;2023-06-22T12:33:23;12.35;;;5.50;;
51489;SDS011;57752;53.574;9.736;2023-06-22T12:38:23;13.35;;;4.97;;
51489;SDS011;57752;53.574;9.736;2023-06-22T12:43:26;22.13;;;5.57;;
51489;SDS011;57752;53.574;9.736;2023-06-22T12:48:27;15.00;;;5.68;;
51489;SDS011;57752;53.574;9.736;2023-06-22T12:53:27;13.43;;;5.70;;
51489;SDS011;57752;53.574;9.736;2023-06-22T12:58:28;12.18;;;5.57;;
51489;SDS011;57752;53.574;9.736;2023-06-22T13:03:28;13.00;;;6.38;;
51489;SDS011;57752;53.574;9.736;2023-06-22T13:08:28;13.20;;;5.53;;
51489;SDS011;57752;53.574;9.736;2023-06-22T13:13:29;16.37;;;6.17;;
51489;SDS011;57752;53.574;9.736;2023-06-22T13:18:29;12.83;;;5.70;;
51489;SDS011;57752;53.574;9.736;2023-06-22T13:23:29;13.00;;;5.68;;
51489;SDS011;57752;53.574;9.736;2023-06-22T13:28:30;11.57;;;5.07;;
51489;SDS011;57752;53.574;9.736;2023-06-22T13:33:30;12.30;;;5.13;;
51489;SDS011;57752;53.574;9.736;2023-06-22T13:38:31;12.97;;;5.70;;
51489;SDS011;57752;53.574;9.736;2023-06-22T13:43:32;16.05;;;6.10;;
51489;SDS011;57752;53.574;9.736;2023-06-22T13:48:32;11.83;;;5.33;;
51489;SDS011;57752;53.574;9.736;2023-06-22T13:53:32;13.97;;;5.77;;
51489;SDS011;57752;53.574;9.736;2023-06-22T13:58:33;13.50;;;6.17;;
51489;SDS011;57752;53.574;9.736;2023-06-22T14:03:33;12.73;;;5.80;;
51489;SDS011;57752;53.574;9.736;2023-06-22T14:08:33;12.68;;;6.45;;
51489;SDS011;57752;53.574;9.736;2023-06-22T14:13:34;13.07;;;6.72;;
51489;SDS011;57752;53.574;9.736;2023-06-22T14:23:35;12.02;;;6.40;;
51489;SDS011;57752;53.574;9.736;2023-06-22T14:28:37;14.02;;;6.60;;
51489;SDS011;57752;53.574;9.736;2023-06-22T14:33:37;12.25;;;6.63;;
51489;SDS011;57752;53.574;9.736;2023-06-22T14:38:38;12.07;;;6.53;;
51489;SDS011;57752;53.574;9.736;2023-06-22T14:43:38;14.93;;;6.33;;
51489;SDS011;57752;53.574;9.736;2023-06-22T14:48:38;11.30;;;5.67;;
51489;SDS011;57752;53.574;9.736;2023-06-22T14:53:39;12.13;;;6.10;;
51489;SDS011;57752;53.574;9.736;2023-06-22T14:58:43;12.90;;;6.40;;
51489;SDS011;57752;53.574;9.736;2023-06-22T15:03:46;19.33;;;7.55;;
51489;SDS011;57752;53.574;9.736;2023-06-22T15:08:46;14.25;;;7.47;;
51489;SDS011;57752;53.574;9.736;2023-06-22T15:13:47;15.33;;;8.63;;
51489;SDS011;57752;53.574;9.736;2023-06-22T15:18:47;16.50;;;8.75;;
51489;SDS011;57752;53.574;9.736;2023-06-22T15:23:48;16.33;;;8.00;;
51489;SDS011;57752;53.574;9.736;2023-06-22T15:28:49;13.13;;;7.90;;
51489;SDS011;57752;53.574;9.736;2023-06-22T15:33:49;16.60;;;8.55;;
51489;SDS011;57752;53.574;9.736;2023-06-22T15:38:49;14.93;;;8.35;;
51489;SDS011;57752;53.574;9.736;2023-06-22T15:43:50;13.48;;;7.82;;
51489;SDS011;57752;53.574;9.736;2023-06-22T15:48:50;14.60;;;7.38;;
51489;SDS011;57752;53.574;9.736;2023-06-22T15:53:50;13.40;;;7.53;;
51489;SDS011;57752;53.574;9.736;2023-06-22T15:58:50;12.63;;;6.68;;
51489;SDS011;57752;53.574;9.736;2023-06-22T16:03:51;13.18;;;7.00;;
51489;SDS011;57752;53.574;9.736;2023-06-22T16:08:51;13.23;;;7.15;;
51489;SDS011;57752;53.574;9.736;2023-06-22T16:13:51;14.27;;;7.47;;
51489;SDS011;57752;53.574;9.736;2023-06-22T16:18:52;15.50;;;7.57;;
51489;SDS011;57752;53.574;9.736;2023-06-22T16:23:52;13.18;;;6.53;;
51489;SDS011;57752;53.574;9.736;2023-06-22T16:28:52;12.27;;;6.25;;
51489;SDS011;57752;53.574;9.736;2023-06-22T16:33:52;12.30;;;5.90;;
51489;SDS011;57752;53.574;9.736;2023-06-22T16:38:53;11.23;;;5.15;;
51489;SDS011;57752;53.574;9.736;2023-06-22T16:43:53;11.05;;;5.25;;
51489;SDS011;57752;53.574;9.736;2023-06-22T16:48:53;12.27;;;6.17;;
51489;SDS011;57752;53.574;9.736;2023-06-22T16:53:54;10.57;;;4.90;;
51489;SDS011;57752;53.574;9.736;2023-06-22T16:58:56;10.77;;;5.03;;
51489;SDS011;57752;53.574;9.736;2023-06-22T17:04:07;14.95;;;5.20;;
51489;SDS011;57752;53.574;9.736;2023-06-22T17:09:10;17.30;;;5.20;;
51489;SDS011;57752;53.574;9.736;2023-06-22T17:14:12;11.27;;;4.80;;
51489;SDS011;57752;53.574;9.736;2023-06-22T17:19:12;11.10;;;4.53;;
51489;SDS011;57752;53.574;9.736;2023-06-22T17:24:15;11.10;;;4.88;;
51489;SDS011;57752;53.574;9.736;2023-06-22T17:29:17;10.70;;;4.97;;
51489;SDS011;57752;53.574;9.736;2023-06-22T17:34:17;11.10;;;4.70;;
51489;SDS011;57752;53.574;9.736;2023-06-22T17:39:21;11.88;;;4.63;;
51489;SDS011;57752;53.574;9.736;2023-06-22T17:49:26;11.15;;;4.47;;
51489;SDS011;57752;53.574;9.736;2023-06-22T17:54:31;11.00;;;4.60;;
51489;SDS011;57752;53.574;9.736;2023-06-22T17:59:32;11.77;;;4.53;;
51489;SDS011;57752;53.574;9.736;2023-06-22T18:04:32;12.18;;;4.93;;
51489;SDS011;57752;53.574;9.736;2023-06-22T18:09:32;12.73;;;5.07;;
51489;SDS011;57752;53.574;9.736;2023-06-22T18:14:33;10.57;;;4.40;;
51489;SDS011;57752;53.574;9.736;2023-06-22T18:19:33;11.48;;;4.22;;
51489;SDS011;57752;53.574;9.736;2023-06-22T18:24:37;11.27;;;4.38;;
51489;SDS011;57752;53.574;9.736;2023-06-22T18:29:39;9.50;;;3.65;;
51489;SDS011;57752;53.574;9.736;2023-06-22T18:34:41;11.27;;;3.97;;
51489;SDS011;57752;53.574;9.736;2023-06-22T18:39:43;12.23;;;4.37;;
51489;SDS011;57752;53.574;9.736;2023-06-22T18:44:44;12.77;;;3.92;;
51489;SDS011;57752;53.574;9.736;2023-06-22T18:49:51;10.13;;;3.63;;
51489;SDS011;57752;53.574;9.736;2023-06-22T18:54:52;10.17;;;3.70;;
51489;SDS011;57752;53.574;9.736;2023-06-22T19:15:41;9.00;;;3.15;;
51489;SDS011;57752;53.574;9.736;2023-06-22T19:20:42;10.20;;;3.50;;
51489;SDS011;57752;53.574;9.736;2023-06-22T19:25:43;9.40;;;3.30;;
51489;SDS011;57752;53.574;9.736;2023-06-22T19:30:45;9.55;;;3.30;;
51489;SDS011;57752;53.574;9.736;2023-06-22T19:35:45;10.27;;;3.13;;
51489;SDS011;57752;53.574;9.736;2023-06-22T19:40:46;9.40;;;3.00;;
51489;SDS011;57752;53.574;9.736;2023-06-22T19:45:47;10.00;;;2.97;;
51489;SDS011;57752;53.574;9.736;2023-06-22T19:50:47;8.10;;;2.40;;
51489;SDS011;57752;53.574;9.736;2023-06-22T19:55:48;9.17;;;2.97;;
51489;SDS011;57752;53.574;9.736;2023-06-22T20:00:49;10.13;;;2.70;;
51489;SDS011;57752;53.574;9.736;2023-06-22T20:05:53;8.50;;;3.00;;
51489;SDS011;57752;53.574;9.736;2023-06-22T20:10:53;10.00;;;3.50;;
51489;SDS011;57752;53.574;9.736;2023-06-22T20:15:55;8.95;;;2.90;;
51489;SDS011;57752;53.574;9.736;2023-06-22T20:20:55;9.43;;;3.17;;
51489;SDS011;57752;53.574;9.736;2023-06-22T20:25:55;11.25;;;3.55;;
51489;SDS011;57752;53.574;9.736;2023-06-22T20:31:00;10.43;;;3.50;;
51489;SDS011;57752;53.574;9.736;2023-06-22T20:36:01;9.75;;;3.67;;
51489;SDS011;57752;53.574;9.736;2023-06-22T20:41:02;10.05;;;3.33;;
51489;SDS011;57752;53.574;9.736;2023-06-22T20:46:05;13.02;;;3.95;;
51489;SDS011;57752;53.574;9.736;2023-06-22T20:51:06;11.30;;;3.95;;
51489;SDS011;57752;53.574;9.736;2023-06-22T20:56:06;11.02;;;4.10;;
51489;SDS011;57752;53.574;9.736;2023-06-22T21:01:07;13.43;;;4.22;;
51489;SDS011;57752;53.574;9.736;2023-06-22T21:06:07;11.02;;;4.75;;
51489;SDS011;57752;53.574;9.736;2023-06-22T21:11:07;11.63;;;4.40;;
51489;SDS011;57752;53.574;9.736;2023-06-22T21:16:08;13.32;;;5.00;;
51489;SDS011;57752;53.574;9.736;2023-06-22T21:21:08;15.88;;;5.63;;
51489;SDS011;57752;53.574;9.736;2023-06-22T21:26:09;12.73;;;4.43;;
51489;SDS011;57752;53.574;9.736;2023-06-22T21:31:09;12.80;;;5.00;;
51489;SDS011;57752;53.574;9.736;2023-06-22T21:36:09;13.20;;;5.63;;
51489;SDS011;57752;53.574;9.736;2023-06-22T21:41:10;15.00;;;6.10;;
51489;SDS011;57752;53.574;9.736;2023-06-22T21:46:10;15.27;;;5.75;;
51489;SDS011;57752;53.574;9.736;2023-06-22T21:51:10;13.20;;;5.28;;
51489;SDS011;57752;53.574;9.736;2023-06-22T21:56:11;13.50;;;5.82;;
51489;SDS011;57752;53.574;9.736;2023-06-22T22:01:11;12.40;;;5.60;;
51489;SDS011;57752;53.574;9.736;2023-06-22T22:06:11;18.52;;;6.93;;
51489;SDS011;57752;53.574;9.736;2023-06-22T22:11:11;21.35;;;6.85;;
51489;SDS011;57752;53.574;9.736;2023-06-22T22:16:12;17.23;;;7.32;;
51489;SDS011;57752;53.574;9.736;2023-06-22T22:21:13;15.13;;;6.83;;
51489;SDS011;57752;53.574;9.736;2023-06-22T22:26:13;16.52;;;5.93;;
51489;SDS011;57752;53.574;9.736;2023-06-22T22:31:13;16.27;;;5.65;;
51489;SDS011;57752;53.574;9.736;2023-06-22T22:36:14;14.73;;;5.70;;
51489;SDS011;57752;53.574;9.736;2023-06-22T22:41:14;12.27;;;5.22;;
51489;SDS011;57752;53.574;9.736;2023-06-22T22:46:14;14.27;;;6.00;;
51489;SDS011;57752;53.574;9.736;2023-06-22T22:51:15;12.98;;;5.22;;
51489;SDS011;57752;53.574;9.736;2023-06-22T22:56:15;16.02;;;6.95;;
51489;SDS011;57752;53.574;9.736;2023-06-22T23:01:16;15.20;;;6.90;;
51489;SDS011;57752;53.574;9.736;2023-06-22T23:06:16;17.17;;;6.50;;
51489;SDS011;57752;53.574;9.736;2023-06-22T23:11:16;13.70;;;6.05;;
51489;SDS011;57752;53.574;9.736;2023-06-22T23:16:17;18.35;;;7.22;;
51489;SDS011;57752;53.574;9.736;2023-06-22T23:21:17;16.10;;;6.93;;
51489;SDS011;57752;53.574;9.736;2023-06-22T23:26:17;17.80;;;7.82;;
51489;SDS011;57752;53.574;9.736;2023-06-22T23:31:18;26.45;;;9.23;;
51489;SDS011;57752;53.574;9.736;2023-06-22T23:36:18;16.52;;;7.55;;
51489;SDS011;57752;53.574;9.736;2023-06-22T23:41:18;23.27;;;8.10;;
51489;SDS011;57752;53.574;9.736;2023-06-22T23:46:19;16.90;;;9.10;;
51489;SDS011;57752;53.574;9.736;2023-06-22T23:51:20;17.08;;;9.48;;
51489;SDS011;57752;53.574;9.736;2023-06-22T23:56:20;18.85;;;9.70;;
